sensor_id;sensor_type;location;lat;lon;timestamp;temperature;humidity
18388;DHT22;9320;50.256;19.026;2023-04-10T00:02:25;8.90;99.90
18388;DHT22;9320;50.256;19.026;2023-04-10T00:04:53;8.90;99.90
18388;DHT22;9320;50.256;19.026;2023-04-10T00:07:21;8.90;99.90
18388;DHT22;9320;50.256;19.026;2023-04-10T00:09:51;8.80;99.90
18388;DHT22;9320;50.256;19.026;2023-04-10T00:12:19;8.90;99.90
18388;DHT22;9320;50.256;19.026;2023-04-10T00:14:47;9.00;99.90
18388;DHT22;9320;50.256;19.026;2023-04-10T00:17:15;8.90;99.90
18388;DHT22;9320;50.256;19.026;2023-04-10T00:19:43;8.90;99.90
18388;DHT22;9320;50.256;19.026;2023-04-10T00:22:11;9.00;99.90
18388;DHT22;9320;50.256;19.026;2023-04-10T00:24:39;9.10;99.90
18388;DHT22;9320;50.256;19.026;2023-04-10T00:27:08;9.10;99.90
18388;DHT22;9320;50.256;19.026;2023-04-10T00:29:37;9.00;99.90
18388;DHT22;9320;50.256;19.026;2023-04-10T00:32:04;9.00;99.90
18388;DHT22;9320;50.256;19.026;2023-04-10T00:34:33;9.10;99.90
18388;DHT22;9320;50.256;19.026;2023-04-10T00:37:01;9.10;99.90
18388;DHT22;9320;50.256;19.026;2023-04-10T00:39:29;9.20;99.90
18388;DHT22;9320;50.256;19.026;2023-04-10T00:41:57;9.20;99.90
18388;DHT22;9320;50.256;19.026;2023-04-10T00:44:27;9.20;99.90
18388;DHT22;9320;50.256;19.026;2023-04-10T00:46:55;9.20;99.90
18388;DHT22;9320;50.256;19.026;2023-04-10T00:49:23;9.20;99.90
18388;DHT22;9320;50.256;19.026;2023-04-10T00:51:51;9.10;99.90
18388;DHT22;9320;50.256;19.026;2023-04-10T00:54:19;9.20;99.90
18388;DHT22;9320;50.256;19.026;2023-04-10T00:56:48;9.20;99.90
18388;DHT22;9320;50.256;19.026;2023-04-10T00:59:16;9.10;99.90
18388;DHT22;9320;50.256;19.026;2023-04-10T01:01:46;9.10;99.90
18388;DHT22;9320;50.256;19.026;2023-04-10T01:04:14;9.10;99.90
18388;DHT22;9320;50.256;19.026;2023-04-10T01:06:52;9.00;99.90
18388;DHT22;9320;50.256;19.026;2023-04-10T01:09:31;9.00;99.90
18388;DHT22;9320;50.256;19.026;2023-04-10T01:12:10;9.10;99.90
18388;DHT22;9320;50.256;19.026;2023-04-10T01:14:48;9.10;99.90
18388;DHT22;9320;50.256;19.026;2023-04-10T01:17:27;9.10;99.90
18388;DHT22;9320;50.256;19.026;2023-04-10T01:20:00;9.20;99.90
18388;DHT22;9320;50.256;19.026;2023-04-10T01:22:34;9.10;99.90
18388;DHT22;9320;50.256;19.026;2023-04-10T01:25:25;9.20;99.90
18388;DHT22;9320;50.256;19.026;2023-04-10T01:28:06;9.20;99.90
18388;DHT22;9320;50.256;19.026;2023-04-10T01:30:40;9.20;99.90
18388;DHT22;9320;50.256;19.026;2023-04-10T01:33:12;9.20;99.90
18388;DHT22;9320;50.256;19.026;2023-04-10T01:35:46;9.50;99.90
18388;DHT22;9320;50.256;19.026;2023-04-10T01:38:17;9.30;99.90
18388;DHT22;9320;50.256;19.026;2023-04-10T01:40:50;9.30;99.90
18388;DHT22;9320;50.256;19.026;2023-04-10T01:43:20;9.00;99.90
18388;DHT22;9320;50.256;19.026;2023-04-10T01:45:50;9.30;99.90
18388;DHT22;9320;50.256;19.026;2023-04-10T01:48:19;9.30;99.90
18388;DHT22;9320;50.256;19.026;2023-04-10T01:50:48;9.40;99.90
18388;DHT22;9320;50.256;19.026;2023-04-10T01:53:17;9.50;99.90
18388;DHT22;9320;50.256;19.026;2023-04-10T01:55:46;9.30;99.90
18388;DHT22;9320;50.256;19.026;2023-04-10T01:58:14;9.40;99.90
18388;DHT22;9320;50.256;19.026;2023-04-10T02:00:43;9.40;99.90
18388;DHT22;9320;50.256;19.026;2023-04-10T02:03:12;9.40;99.90
18388;DHT22;9320;50.256;19.026;2023-04-10T02:05:48;9.30;99.90
18388;DHT22;9320;50.256;19.026;2023-04-10T02:08:25;9.30;99.90
18388;DHT22;9320;50.256;19.026;2023-04-10T02:11:00;9.20;99.90
18388;DHT22;9320;50.256;19.026;2023-04-10T02:13:29;9.20;99.90
18388;DHT22;9320;50.256;19.026;2023-04-10T02:16:03;9.20;99.90
18388;DHT22;9320;50.256;19.026;2023-04-10T02:18:36;9.20;99.90
18388;DHT22;9320;50.256;19.026;2023-04-10T02:21:06;9.30;99.90
18388;DHT22;9320;50.256;19.026;2023-04-10T02:23:35;9.30;99.90
18388;DHT22;9320;50.256;19.026;2023-04-10T02:26:07;9.30;99.90
18388;DHT22;9320;50.256;19.026;2023-04-10T02:28:37;9.30;99.90
18388;DHT22;9320;50.256;19.026;2023-04-10T02:31:05;9.40;99.90
18388;DHT22;9320;50.256;19.026;2023-04-10T02:33:35;9.30;99.90
18388;DHT22;9320;50.256;19.026;2023-04-10T02:36:03;9.40;99.90
18388;DHT22;9320;50.256;19.026;2023-04-10T02:38:31;9.40;99.90
18388;DHT22;9320;50.256;19.026;2023-04-10T02:40:59;9.40;99.90
18388;DHT22;9320;50.256;19.026;2023-04-10T02:43:27;9.40;99.90
18388;DHT22;9320;50.256;19.026;2023-04-10T02:45:56;9.40;99.90
18388;DHT22;9320;50.256;19.026;2023-04-10T02:48:24;9.40;99.90
18388;DHT22;9320;50.256;19.026;2023-04-10T02:50:56;9.20;99.90
18388;DHT22;9320;50.256;19.026;2023-04-10T02:53:24;9.10;99.90
18388;DHT22;9320;50.256;19.026;2023-04-10T02:55:52;9.10;99.90
18388;DHT22;9320;50.256;19.026;2023-04-10T02:58:21;9.10;99.90
18388;DHT22;9320;50.256;19.026;2023-04-10T03:00:50;9.10;99.90
18388;DHT22;9320;50.256;19.026;2023-04-10T03:03:18;9.00;99.90
18388;DHT22;9320;50.256;19.026;2023-04-10T03:05:47;8.90;99.90
18388;DHT22;9320;50.256;19.026;2023-04-10T03:08:16;8.90;99.90
18388;DHT22;9320;50.256;19.026;2023-04-10T03:10:46;8.90;99.90
18388;DHT22;9320;50.256;19.026;2023-04-10T03:13:15;9.00;99.90
18388;DHT22;9320;50.256;19.026;2023-04-10T03:15:43;8.90;99.90
18388;DHT22;9320;50.256;19.026;2023-04-10T03:18:11;9.00;99.90
18388;DHT22;9320;50.256;19.026;2023-04-10T03:20:40;9.00;99.90
18388;DHT22;9320;50.256;19.026;2023-04-10T03:23:10;9.00;99.90
18388;DHT22;9320;50.256;19.026;2023-04-10T03:25:40;8.90;99.90
18388;DHT22;9320;50.256;19.026;2023-04-10T03:28:09;8.80;99.90
18388;DHT22;9320;50.256;19.026;2023-04-10T03:30:37;8.70;99.90
18388;DHT22;9320;50.256;19.026;2023-04-10T03:33:05;8.80;99.90
18388;DHT22;9320;50.256;19.026;2023-04-10T03:35:33;8.80;99.90
18388;DHT22;9320;50.256;19.026;2023-04-10T03:38:01;8.90;99.90
18388;DHT22;9320;50.256;19.026;2023-04-10T03:40:29;8.80;99.90
18388;DHT22;9320;50.256;19.026;2023-04-10T03:42:58;8.80;99.90
18388;DHT22;9320;50.256;19.026;2023-04-10T03:45:26;8.80;99.90
18388;DHT22;9320;50.256;19.026;2023-04-10T03:47:54;8.80;99.90
18388;DHT22;9320;50.256;19.026;2023-04-10T03:50:22;8.90;99.90
18388;DHT22;9320;50.256;19.026;2023-04-10T03:52:51;8.90;99.90
18388;DHT22;9320;50.256;19.026;2023-04-10T03:55:19;8.90;99.90
18388;DHT22;9320;50.256;19.026;2023-04-10T03:57:47;9.00;99.90
18388;DHT22;9320;50.256;19.026;2023-04-10T04:00:18;9.10;99.90
18388;DHT22;9320;50.256;19.026;2023-04-10T04:02:47;9.10;99.90
18388;DHT22;9320;50.256;19.026;2023-04-10T04:05:16;9.10;99.90
18388;DHT22;9320;50.256;19.026;2023-04-10T04:07:45;9.20;99.90
18388;DHT22;9320;50.256;19.026;2023-04-10T04:10:13;9.10;99.90
18388;DHT22;9320;50.256;19.026;2023-04-10T04:12:41;9.10;99.90
18388;DHT22;9320;50.256;19.026;2023-04-10T04:15:09;9.00;99.90
18388;DHT22;9320;50.256;19.026;2023-04-10T04:17:39;9.00;99.90
18388;DHT22;9320;50.256;19.026;2023-04-10T04:20:08;8.90;99.90
18388;DHT22;9320;50.256;19.026;2023-04-10T04:22:36;8.90;99.90
18388;DHT22;9320;50.256;19.026;2023-04-10T04:25:04;8.90;99.90
18388;DHT22;9320;50.256;19.026;2023-04-10T04:27:36;8.90;99.90
18388;DHT22;9320;50.256;19.026;2023-04-10T04:30:05;9.00;99.90
18388;DHT22;9320;50.256;19.026;2023-04-10T04:32:34;8.90;99.90
18388;DHT22;9320;50.256;19.026;2023-04-10T04:35:04;8.90;99.90
18388;DHT22;9320;50.256;19.026;2023-04-10T04:37:32;8.80;99.90
18388;DHT22;9320;50.256;19.026;2023-04-10T04:40:00;8.90;99.90
18388;DHT22;9320;50.256;19.026;2023-04-10T04:42:29;9.10;99.90
18388;DHT22;9320;50.256;19.026;2023-04-10T04:44:57;9.10;99.90
18388;DHT22;9320;50.256;19.026;2023-04-10T04:47:25;9.00;99.90
18388;DHT22;9320;50.256;19.026;2023-04-10T04:49:53;9.00;99.90
18388;DHT22;9320;50.256;19.026;2023-04-10T04:52:22;9.10;99.90
18388;DHT22;9320;50.256;19.026;2023-04-10T04:54:51;9.10;99.90
18388;DHT22;9320;50.256;19.026;2023-04-10T04:57:19;9.10;99.90
18388;DHT22;9320;50.256;19.026;2023-04-10T04:59:47;9.10;99.90
18388;DHT22;9320;50.256;19.026;2023-04-10T05:02:16;9.00;99.90
18388;DHT22;9320;50.256;19.026;2023-04-10T05:04:44;9.10;99.90
18388;DHT22;9320;50.256;19.026;2023-04-10T05:07:12;9.20;99.90
18388;DHT22;9320;50.256;19.026;2023-04-10T05:09:42;9.10;99.90
18388;DHT22;9320;50.256;19.026;2023-04-10T05:12:10;9.20;99.90
18388;DHT22;9320;50.256;19.026;2023-04-10T05:14:38;9.30;99.90
18388;DHT22;9320;50.256;19.026;2023-04-10T05:17:06;9.30;99.90
18388;DHT22;9320;50.256;19.026;2023-04-10T05:19:34;9.20;99.90
18388;DHT22;9320;50.256;19.026;2023-04-10T05:22:02;9.20;99.90
18388;DHT22;9320;50.256;19.026;2023-04-10T05:24:30;9.20;99.90
18388;DHT22;9320;50.256;19.026;2023-04-10T05:26:59;9.10;99.90
18388;DHT22;9320;50.256;19.026;2023-04-10T05:29:28;9.10;99.90
18388;DHT22;9320;50.256;19.026;2023-04-10T05:31:56;9.10;99.90
18388;DHT22;9320;50.256;19.026;2023-04-10T05:34:24;9.10;99.90
18388;DHT22;9320;50.256;19.026;2023-04-10T05:36:52;9.10;99.90
18388;DHT22;9320;50.256;19.026;2023-04-10T05:39:23;9.00;99.90
18388;DHT22;9320;50.256;19.026;2023-04-10T05:41:51;9.00;99.90
18388;DHT22;9320;50.256;19.026;2023-04-10T05:44:20;9.00;99.90
18388;DHT22;9320;50.256;19.026;2023-04-10T05:46:48;9.10;99.90
18388;DHT22;9320;50.256;19.026;2023-04-10T05:49:16;9.20;99.90
18388;DHT22;9320;50.256;19.026;2023-04-10T05:51:44;9.30;99.90
18388;DHT22;9320;50.256;19.026;2023-04-10T05:54:16;9.30;99.90
18388;DHT22;9320;50.256;19.026;2023-04-10T05:56:44;9.40;99.90
18388;DHT22;9320;50.256;19.026;2023-04-10T05:59:12;9.40;99.90
18388;DHT22;9320;50.256;19.026;2023-04-10T06:01:42;9.30;99.90
18388;DHT22;9320;50.256;19.026;2023-04-10T06:04:10;9.30;99.90
18388;DHT22;9320;50.256;19.026;2023-04-10T06:06:39;9.50;99.90
18388;DHT22;9320;50.256;19.026;2023-04-10T06:09:07;9.50;99.90
18388;DHT22;9320;50.256;19.026;2023-04-10T06:11:35;9.50;99.90
18388;DHT22;9320;50.256;19.026;2023-04-10T06:14:03;9.50;99.90
18388;DHT22;9320;50.256;19.026;2023-04-10T06:16:31;9.50;99.90
18388;DHT22;9320;50.256;19.026;2023-04-10T06:19:01;9.60;99.90
18388;DHT22;9320;50.256;19.026;2023-04-10T06:21:29;9.70;99.90
18388;DHT22;9320;50.256;19.026;2023-04-10T06:23:57;9.60;99.90
18388;DHT22;9320;50.256;19.026;2023-04-10T06:26:25;9.70;99.90
18388;DHT22;9320;50.256;19.026;2023-04-10T06:28:53;9.60;99.90
18388;DHT22;9320;50.256;19.026;2023-04-10T06:31:21;9.50;99.90
18388;DHT22;9320;50.256;19.026;2023-04-10T06:33:50;9.40;99.90
18388;DHT22;9320;50.256;19.026;2023-04-10T06:36:19;9.40;99.90
18388;DHT22;9320;50.256;19.026;2023-04-10T06:38:47;9.40;99.90
18388;DHT22;9320;50.256;19.026;2023-04-10T06:41:15;9.30;99.90
18388;DHT22;9320;50.256;19.026;2023-04-10T06:43:43;9.30;99.90
18388;DHT22;9320;50.256;19.026;2023-04-10T06:46:11;9.20;99.90
18388;DHT22;9320;50.256;19.026;2023-04-10T06:48:40;9.20;99.90
18388;DHT22;9320;50.256;19.026;2023-04-10T06:51:08;9.20;99.90
18388;DHT22;9320;50.256;19.026;2023-04-10T06:53:37;9.30;99.90
18388;DHT22;9320;50.256;19.026;2023-04-10T06:56:05;9.40;99.90
18388;DHT22;9320;50.256;19.026;2023-04-10T06:58:33;9.50;99.90
18388;DHT22;9320;50.256;19.026;2023-04-10T07:01:01;9.60;99.90
18388;DHT22;9320;50.256;19.026;2023-04-10T07:03:30;9.60;99.90
18388;DHT22;9320;50.256;19.026;2023-04-10T07:05:59;9.60;99.90
18388;DHT22;9320;50.256;19.026;2023-04-10T07:08:30;9.50;99.90
18388;DHT22;9320;50.256;19.026;2023-04-10T07:10:59;9.60;99.90
18388;DHT22;9320;50.256;19.026;2023-04-10T07:13:27;9.60;99.90
18388;DHT22;9320;50.256;19.026;2023-04-10T07:15:56;9.70;99.90
18388;DHT22;9320;50.256;19.026;2023-04-10T07:18:23;9.60;99.90
18388;DHT22;9320;50.256;19.026;2023-04-10T07:20:51;9.70;99.90
18388;DHT22;9320;50.256;19.026;2023-04-10T07:23:19;9.80;99.90
18388;DHT22;9320;50.256;19.026;2023-04-10T07:25:48;9.80;99.90
18388;DHT22;9320;50.256;19.026;2023-04-10T07:28:19;9.80;99.90
18388;DHT22;9320;50.256;19.026;2023-04-10T07:30:47;9.80;99.90
18388;DHT22;9320;50.256;19.026;2023-04-10T07:33:15;9.80;99.90
18388;DHT22;9320;50.256;19.026;2023-04-10T07:35:43;9.90;99.90
18388;DHT22;9320;50.256;19.026;2023-04-10T07:38:11;9.90;99.90
18388;DHT22;9320;50.256;19.026;2023-04-10T07:40:39;10.00;99.90
18388;DHT22;9320;50.256;19.026;2023-04-10T07:43:07;10.00;99.90
18388;DHT22;9320;50.256;19.026;2023-04-10T07:45:37;10.20;99.90
18388;DHT22;9320;50.256;19.026;2023-04-10T07:48:05;10.20;99.90
18388;DHT22;9320;50.256;19.026;2023-04-10T07:50:34;10.20;99.90
18388;DHT22;9320;50.256;19.026;2023-04-10T07:53:02;10.30;99.90
18388;DHT22;9320;50.256;19.026;2023-04-10T07:55:36;10.30;99.90
18388;DHT22;9320;50.256;19.026;2023-04-10T07:58:04;10.20;99.90
18388;DHT22;9320;50.256;19.026;2023-04-10T08:00:33;10.30;99.90
18388;DHT22;9320;50.256;19.026;2023-04-10T08:03:04;10.40;99.90
18388;DHT22;9320;50.256;19.026;2023-04-10T08:05:33;10.60;99.90
18388;DHT22;9320;50.256;19.026;2023-04-10T08:08:01;10.80;99.90
18388;DHT22;9320;50.256;19.026;2023-04-10T08:10:29;11.10;99.90
18388;DHT22;9320;50.256;19.026;2023-04-10T08:12:57;11.10;99.90
18388;DHT22;9320;50.256;19.026;2023-04-10T08:15:25;11.00;99.90
18388;DHT22;9320;50.256;19.026;2023-04-10T08:17:53;10.90;99.90
18388;DHT22;9320;50.256;19.026;2023-04-10T08:20:22;11.00;99.90
18388;DHT22;9320;50.256;19.026;2023-04-10T08:22:50;10.90;99.90
18388;DHT22;9320;50.256;19.026;2023-04-10T08:25:18;10.90;99.90
18388;DHT22;9320;50.256;19.026;2023-04-10T08:27:46;11.10;99.90
18388;DHT22;9320;50.256;19.026;2023-04-10T08:30:14;11.30;99.90
18388;DHT22;9320;50.256;19.026;2023-04-10T08:32:42;11.60;99.90
18388;DHT22;9320;50.256;19.026;2023-04-10T08:35:10;11.80;99.90
18388;DHT22;9320;50.256;19.026;2023-04-10T08:37:40;11.90;99.90
18388;DHT22;9320;50.256;19.026;2023-04-10T08:40:12;11.70;99.90
18388;DHT22;9320;50.256;19.026;2023-04-10T08:42:41;11.50;99.90
18388;DHT22;9320;50.256;19.026;2023-04-10T08:45:10;11.60;99.90
18388;DHT22;9320;50.256;19.026;2023-04-10T08:47:38;11.70;99.90
18388;DHT22;9320;50.256;19.026;2023-04-10T08:50:10;12.10;99.90
18388;DHT22;9320;50.256;19.026;2023-04-10T08:52:43;12.60;99.90
18388;DHT22;9320;50.256;19.026;2023-04-10T08:55:12;13.00;99.90
18388;DHT22;9320;50.256;19.026;2023-04-10T08:57:41;13.00;99.90
18388;DHT22;9320;50.256;19.026;2023-04-10T09:00:20;12.60;99.90
18388;DHT22;9320;50.256;19.026;2023-04-10T09:02:49;12.40;99.90
18388;DHT22;9320;50.256;19.026;2023-04-10T09:05:24;12.40;99.90
18388;DHT22;9320;50.256;19.026;2023-04-10T09:07:54;12.50;99.90
18388;DHT22;9320;50.256;19.026;2023-04-10T09:10:23;12.60;99.90
18388;DHT22;9320;50.256;19.026;2023-04-10T09:12:51;12.60;99.90
18388;DHT22;9320;50.256;19.026;2023-04-10T09:15:19;12.30;99.90
18388;DHT22;9320;50.256;19.026;2023-04-10T09:17:57;12.30;99.90
18388;DHT22;9320;50.256;19.026;2023-04-10T09:20:28;12.30;99.90
18388;DHT22;9320;50.256;19.026;2023-04-10T09:22:57;12.50;99.90
18388;DHT22;9320;50.256;19.026;2023-04-10T09:25:33;12.60;99.90
18388;DHT22;9320;50.256;19.026;2023-04-10T09:28:04;12.70;99.90
18388;DHT22;9320;50.256;19.026;2023-04-10T09:30:36;12.60;99.90
18388;DHT22;9320;50.256;19.026;2023-04-10T09:33:22;12.50;99.90
18388;DHT22;9320;50.256;19.026;2023-04-10T09:35:50;12.60;99.90
18388;DHT22;9320;50.256;19.026;2023-04-10T09:38:20;12.80;99.90
18388;DHT22;9320;50.256;19.026;2023-04-10T09:40:48;12.70;99.90
18388;DHT22;9320;50.256;19.026;2023-04-10T09:43:21;12.80;99.90
18388;DHT22;9320;50.256;19.026;2023-04-10T09:45:51;12.80;99.90
18388;DHT22;9320;50.256;19.026;2023-04-10T09:48:20;12.80;99.90
18388;DHT22;9320;50.256;19.026;2023-04-10T09:50:49;12.80;99.90
18388;DHT22;9320;50.256;19.026;2023-04-10T09:53:20;12.90;99.90
18388;DHT22;9320;50.256;19.026;2023-04-10T09:55:49;13.10;99.90
18388;DHT22;9320;50.256;19.026;2023-04-10T09:58:17;13.30;99.90
18388;DHT22;9320;50.256;19.026;2023-04-10T10:00:46;13.30;99.90
18388;DHT22;9320;50.256;19.026;2023-04-10T10:03:15;13.40;99.90
18388;DHT22;9320;50.256;19.026;2023-04-10T10:05:46;13.20;99.90
18388;DHT22;9320;50.256;19.026;2023-04-10T10:08:15;13.30;99.90
18388;DHT22;9320;50.256;19.026;2023-04-10T10:10:46;13.30;99.90
18388;DHT22;9320;50.256;19.026;2023-04-10T10:13:15;13.40;99.90
18388;DHT22;9320;50.256;19.026;2023-04-10T10:15:53;13.50;99.90
18388;DHT22;9320;50.256;19.026;2023-04-10T10:18:34;13.50;99.90
18388;DHT22;9320;50.256;19.026;2023-04-10T10:21:03;13.50;99.90
18388;DHT22;9320;50.256;19.026;2023-04-10T10:23:33;13.50;99.90
18388;DHT22;9320;50.256;19.026;2023-04-10T10:26:04;13.50;99.90
18388;DHT22;9320;50.256;19.026;2023-04-10T10:28:32;13.70;99.90
18388;DHT22;9320;50.256;19.026;2023-04-10T10:31:03;13.50;99.90
18388;DHT22;9320;50.256;19.026;2023-04-10T10:33:32;13.30;99.90
18388;DHT22;9320;50.256;19.026;2023-04-10T10:36:03;13.10;99.90
18388;DHT22;9320;50.256;19.026;2023-04-10T10:38:32;13.10;99.90
18388;DHT22;9320;50.256;19.026;2023-04-10T10:41:04;13.00;99.90
18388;DHT22;9320;50.256;19.026;2023-04-10T10:43:43;12.80;99.90
18388;DHT22;9320;50.256;19.026;2023-04-10T10:46:17;12.70;99.90
18388;DHT22;9320;50.256;19.026;2023-04-10T10:48:55;12.70;99.90
18388;DHT22;9320;50.256;19.026;2023-04-10T10:51:41;12.90;99.90
18388;DHT22;9320;50.256;19.026;2023-04-10T10:54:27;13.20;99.90
18388;DHT22;9320;50.256;19.026;2023-04-10T10:56:56;13.20;99.90
18388;DHT22;9320;50.256;19.026;2023-04-10T10:59:54;13.30;99.90
18388;DHT22;9320;50.256;19.026;2023-04-10T11:02:25;13.60;99.90
18388;DHT22;9320;50.256;19.026;2023-04-10T11:04:53;14.10;99.90
18388;DHT22;9320;50.256;19.026;2023-04-10T11:13:31;14.40;99.90
18388;DHT22;9320;50.256;19.026;2023-04-10T11:16:01;14.40;99.90
18388;DHT22;9320;50.256;19.026;2023-04-10T11:19:00;14.30;99.90
18388;DHT22;9320;50.256;19.026;2023-04-10T11:21:59;14.20;99.90
18388;DHT22;9320;50.256;19.026;2023-04-10T11:24:28;14.30;99.90
18388;DHT22;9320;50.256;19.026;2023-04-10T11:26:57;14.20;99.90
18388;DHT22;9320;50.256;19.026;2023-04-10T11:29:35;14.00;99.90
18388;DHT22;9320;50.256;19.026;2023-04-10T11:32:03;14.20;99.90
18388;DHT22;9320;50.256;19.026;2023-04-10T11:34:31;14.50;99.90
18388;DHT22;9320;50.256;19.026;2023-04-10T11:37:00;14.80;99.90
18388;DHT22;9320;50.256;19.026;2023-04-10T11:39:29;14.90;98.80
18388;DHT22;9320;50.256;19.026;2023-04-10T11:41:57;15.10;98.30
18388;DHT22;9320;50.256;19.026;2023-04-10T11:44:29;15.40;98.00
18388;DHT22;9320;50.256;19.026;2023-04-10T11:46:59;15.40;95.70
18388;DHT22;9320;50.256;19.026;2023-04-10T11:49:29;15.30;96.60
18388;DHT22;9320;50.256;19.026;2023-04-10T11:51:58;15.50;95.80
18388;DHT22;9320;50.256;19.026;2023-04-10T11:54:27;15.80;95.10
18388;DHT22;9320;50.256;19.026;2023-04-10T11:57:00;16.10;93.90
18388;DHT22;9320;50.256;19.026;2023-04-10T11:59:29;15.80;93.50
18388;DHT22;9320;50.256;19.026;2023-04-10T12:02:06;15.60;94.70
18388;DHT22;9320;50.256;19.026;2023-04-10T12:04:35;15.50;93.90
18388;DHT22;9320;50.256;19.026;2023-04-10T12:07:04;15.30;94.50
18388;DHT22;9320;50.256;19.026;2023-04-10T12:09:32;15.30;94.90
18388;DHT22;9320;50.256;19.026;2023-04-10T12:12:01;15.30;94.70
18388;DHT22;9320;50.256;19.026;2023-04-10T12:14:31;15.10;95.00
18388;DHT22;9320;50.256;19.026;2023-04-10T12:17:00;15.30;94.90
18388;DHT22;9320;50.256;19.026;2023-04-10T12:19:30;15.20;94.40
18388;DHT22;9320;50.256;19.026;2023-04-10T12:21:59;15.10;94.50
18388;DHT22;9320;50.256;19.026;2023-04-10T12:24:41;15.10;94.90
18388;DHT22;9320;50.256;19.026;2023-04-10T12:27:15;15.10;94.50
18388;DHT22;9320;50.256;19.026;2023-04-10T12:29:44;15.10;94.50
18388;DHT22;9320;50.256;19.026;2023-04-10T12:32:12;15.20;94.30
18388;DHT22;9320;50.256;19.026;2023-04-10T12:34:48;15.60;93.90
18388;DHT22;9320;50.256;19.026;2023-04-10T12:37:17;16.20;93.30
18388;DHT22;9320;50.256;19.026;2023-04-10T12:39:45;16.60;91.70
18388;DHT22;9320;50.256;19.026;2023-04-10T12:42:14;17.10;90.70
18388;DHT22;9320;50.256;19.026;2023-04-10T12:44:52;17.30;90.00
18388;DHT22;9320;50.256;19.026;2023-04-10T12:47:21;17.40;88.00
18388;DHT22;9320;50.256;19.026;2023-04-10T12:50:05;17.40;87.90
18388;DHT22;9320;50.256;19.026;2023-04-10T12:52:33;17.30;87.40
18388;DHT22;9320;50.256;19.026;2023-04-10T12:55:09;17.20;86.90
18388;DHT22;9320;50.256;19.026;2023-04-10T12:57:38;17.00;88.20
18388;DHT22;9320;50.256;19.026;2023-04-10T13:00:08;16.70;87.30
18388;DHT22;9320;50.256;19.026;2023-04-10T13:02:36;16.90;88.50
18388;DHT22;9320;50.256;19.026;2023-04-10T13:05:08;17.10;87.00
18388;DHT22;9320;50.256;19.026;2023-04-10T13:07:36;17.20;87.20
18388;DHT22;9320;50.256;19.026;2023-04-10T13:10:05;17.10;86.10
18388;DHT22;9320;50.256;19.026;2023-04-10T13:12:34;17.00;85.40
18388;DHT22;9320;50.256;19.026;2023-04-10T13:15:04;16.90;85.60
18388;DHT22;9320;50.256;19.026;2023-04-10T13:17:33;16.70;84.50
18388;DHT22;9320;50.256;19.026;2023-04-10T13:20:02;16.50;85.40
18388;DHT22;9320;50.256;19.026;2023-04-10T13:22:31;16.40;86.10
18388;DHT22;9320;50.256;19.026;2023-04-10T13:24:59;16.60;85.50
18388;DHT22;9320;50.256;19.026;2023-04-10T13:27:29;16.70;85.70
18388;DHT22;9320;50.256;19.026;2023-04-10T13:29:57;16.80;85.40
18388;DHT22;9320;50.256;19.026;2023-04-10T13:32:25;17.00;85.30
18388;DHT22;9320;50.256;19.026;2023-04-10T13:34:53;17.20;84.70
18388;DHT22;9320;50.256;19.026;2023-04-10T13:37:22;17.20;82.80
18388;DHT22;9320;50.256;19.026;2023-04-10T13:39:53;17.30;82.90
18388;DHT22;9320;50.256;19.026;2023-04-10T13:42:22;17.30;82.60
18388;DHT22;9320;50.256;19.026;2023-04-10T13:44:50;17.20;82.40
18388;DHT22;9320;50.256;19.026;2023-04-10T13:47:18;17.10;83.10
18388;DHT22;9320;50.256;19.026;2023-04-10T13:49:46;17.20;83.00
18388;DHT22;9320;50.256;19.026;2023-04-10T13:52:14;17.10;82.80
18388;DHT22;9320;50.256;19.026;2023-04-10T13:54:42;16.90;83.00
18388;DHT22;9320;50.256;19.026;2023-04-10T13:57:11;16.90;83.50
18388;DHT22;9320;50.256;19.026;2023-04-10T13:59:39;16.80;83.30
18388;DHT22;9320;50.256;19.026;2023-04-10T14:02:07;17.10;82.60
18388;DHT22;9320;50.256;19.026;2023-04-10T14:04:36;17.30;81.10
18388;DHT22;9320;50.256;19.026;2023-04-10T14:07:04;17.20;81.00
18388;DHT22;9320;50.256;19.026;2023-04-10T14:09:32;17.00;81.30
18388;DHT22;9320;50.256;19.026;2023-04-10T14:12:00;16.70;82.00
18388;DHT22;9320;50.256;19.026;2023-04-10T14:14:30;16.60;81.90
18388;DHT22;9320;50.256;19.026;2023-04-10T14:16:58;16.50;83.30
18388;DHT22;9320;50.256;19.026;2023-04-10T14:19:26;16.50;83.40
18388;DHT22;9320;50.256;19.026;2023-04-10T14:21:54;16.60;81.70
18388;DHT22;9320;50.256;19.026;2023-04-10T14:24:22;16.80;82.00
18388;DHT22;9320;50.256;19.026;2023-04-10T14:26:50;16.70;81.60
18388;DHT22;9320;50.256;19.026;2023-04-10T14:29:23;16.70;81.80
18388;DHT22;9320;50.256;19.026;2023-04-10T14:32:06;16.60;81.60
18388;DHT22;9320;50.256;19.026;2023-04-10T14:34:34;16.50;81.20
18388;DHT22;9320;50.256;19.026;2023-04-10T14:37:02;16.40;81.70
18388;DHT22;9320;50.256;19.026;2023-04-10T14:39:30;16.50;82.70
18388;DHT22;9320;50.256;19.026;2023-04-10T14:41:59;16.80;81.70
18388;DHT22;9320;50.256;19.026;2023-04-10T14:44:29;17.00;81.30
18388;DHT22;9320;50.256;19.026;2023-04-10T14:46:57;17.20;80.80
18388;DHT22;9320;50.256;19.026;2023-04-10T14:49:26;17.30;79.50
18388;DHT22;9320;50.256;19.026;2023-04-10T14:51:54;17.30;80.00
18388;DHT22;9320;50.256;19.026;2023-04-10T14:54:22;17.20;80.00
18388;DHT22;9320;50.256;19.026;2023-04-10T14:56:50;17.30;79.50
18388;DHT22;9320;50.256;19.026;2023-04-10T14:59:18;17.10;80.10
18388;DHT22;9320;50.256;19.026;2023-04-10T15:01:46;17.00;80.50
18388;DHT22;9320;50.256;19.026;2023-04-10T15:04:15;16.70;81.30
18388;DHT22;9320;50.256;19.026;2023-04-10T15:06:44;16.70;81.60
18388;DHT22;9320;50.256;19.026;2023-04-10T15:09:12;16.70;81.70
18388;DHT22;9320;50.256;19.026;2023-04-10T15:11:41;16.50;82.70
18388;DHT22;9320;50.256;19.026;2023-04-10T15:14:09;16.40;82.60
18388;DHT22;9320;50.256;19.026;2023-04-10T15:16:38;16.30;83.80
18388;DHT22;9320;50.256;19.026;2023-04-10T15:19:06;16.10;84.60
18388;DHT22;9320;50.256;19.026;2023-04-10T15:21:34;16.00;85.20
18388;DHT22;9320;50.256;19.026;2023-04-10T15:24:03;15.90;85.40
18388;DHT22;9320;50.256;19.026;2023-04-10T15:26:31;15.80;85.50
18388;DHT22;9320;50.256;19.026;2023-04-10T15:29:00;15.90;85.60
18388;DHT22;9320;50.256;19.026;2023-04-10T15:31:28;16.10;85.60
18388;DHT22;9320;50.256;19.026;2023-04-10T15:33:56;16.40;85.10
18388;DHT22;9320;50.256;19.026;2023-04-10T15:36:24;16.60;85.00
18388;DHT22;9320;50.256;19.026;2023-04-10T15:38:53;16.60;85.20
18388;DHT22;9320;50.256;19.026;2023-04-10T15:41:22;16.80;84.80
18388;DHT22;9320;50.256;19.026;2023-04-10T15:43:50;17.00;84.10
18388;DHT22;9320;50.256;19.026;2023-04-10T15:46:19;17.10;82.50
18388;DHT22;9320;50.256;19.026;2023-04-10T15:48:47;17.20;82.30
18388;DHT22;9320;50.256;19.026;2023-04-10T15:51:15;17.10;82.70
18388;DHT22;9320;50.256;19.026;2023-04-10T15:53:43;17.10;82.90
18388;DHT22;9320;50.256;19.026;2023-04-10T15:56:11;17.00;83.00
18388;DHT22;9320;50.256;19.026;2023-04-10T15:58:43;16.90;82.90
18388;DHT22;9320;50.256;19.026;2023-04-10T16:01:11;16.60;82.90